createdAt,value
2022-10-31T00:01:27.273Z,84.80
2022-10-31T00:03:54.670Z,85.50
2022-10-31T00:06:22.548Z,86.00
2022-10-31T00:08:54.525Z,85.30
2022-10-31T00:11:22.002Z,84.80
2022-10-31T00:13:48.723Z,84.80
2022-10-31T00:16:20.479Z,84.80
2022-10-31T00:18:51.562Z,85.70
2022-10-31T00:23:45.364Z,84.60
2022-10-31T00:26:12.035Z,84.50
2022-10-31T00:28:38.896Z,81.20
2022-10-31T00:31:06.802Z,81.20
2022-10-31T00:33:38.516Z,81.50
2022-10-31T00:36:07.174Z,85.10
2022-10-31T00:38:34.130Z,85.00
2022-10-31T00:41:00.717Z,81.00
2022-10-31T00:43:27.665Z,84.30
2022-10-31T00:45:54.488Z,84.30
2022-10-31T00:48:23.871Z,84.30
2022-10-31T00:53:17.848Z,84.30
2022-10-31T00:55:44.561Z,85.10
2022-10-31T01:00:38.646Z,85.60
2022-10-31T01:03:05.380Z,84.70
2022-10-31T01:05:32.110Z,84.80
2022-10-31T01:07:59.555Z,85.30
2022-10-31T01:10:27.563Z,85.40
2022-10-31T01:15:23.677Z,83.80
2022-10-31T01:20:17.980Z,84.60
2022-10-31T01:22:44.797Z,85.90
2022-10-31T01:25:12.361Z,84.70
2022-10-31T01:30:08.189Z,84.90
2022-10-31T01:32:34.877Z,84.80
2022-10-31T01:37:28.553Z,85.70
2022-10-31T01:39:55.303Z,85.10
2022-10-31T01:42:23.852Z,86.20
2022-10-31T01:44:57.843Z,85.60
2022-10-31T01:47:41.715Z,86.20
2022-10-31T01:50:18.398Z,81.00
2022-10-31T01:52:48.287Z,85.30
2022-10-31T01:55:25.231Z,86.10
2022-10-31T01:58:03.147Z,82.20
2022-10-31T02:00:30.114Z,85.10
2022-10-31T02:02:57.268Z,85.30
2022-10-31T02:05:29.179Z,82.20
2022-10-31T02:08:01.283Z,86.70
2022-10-31T02:10:32.158Z,85.40
2022-10-31T02:13:00.955Z,85.40
2022-10-31T02:15:30.389Z,85.40
2022-10-31T02:17:57.831Z,85.50
2022-10-31T02:20:28.441Z,86.90
2022-10-31T02:23:22.299Z,85.50
2022-10-31T02:26:26.935Z,85.90
2022-10-31T02:29:15.488Z,85.50
2022-10-31T02:32:01.015Z,83.10
2022-10-31T02:34:43.741Z,85.50
2022-10-31T02:37:42.318Z,81.20
2022-10-31T02:40:17.808Z,85.70
2022-10-31T02:43:31.552Z,86.10
2022-10-31T02:46:00.396Z,85.70
2022-10-31T02:48:32.263Z,85.80
2022-10-31T02:51:04.450Z,85.90
2022-10-31T02:53:35.755Z,86.00
2022-10-31T02:56:13.850Z,81.60
2022-10-31T02:58:52.935Z,81.70
2022-10-31T03:01:35.738Z,84.50
2022-10-31T03:04:20.294Z,82.70
2022-10-31T03:06:57.449Z,87.80
2022-10-31T03:09:51.623Z,82.50
2022-10-31T03:12:34.821Z,82.00
2022-10-31T03:15:22.762Z,86.60
2022-10-31T03:18:05.230Z,82.10
2022-10-31T03:20:38.619Z,82.20
2022-10-31T03:23:06.515Z,82.60
2022-10-31T03:25:36.433Z,87.00
2022-10-31T03:28:05.622Z,82.30
2022-10-31T03:30:37.214Z,87.10
2022-10-31T03:33:09.928Z,82.40
2022-10-31T03:35:43.570Z,87.80
2022-10-31T03:38:12.085Z,86.90
2022-10-31T03:40:41.894Z,88.10
2022-10-31T03:43:14.510Z,82.50
2022-10-31T03:45:46.111Z,87.30
2022-10-31T03:48:15.422Z,87.70
2022-10-31T03:50:57.652Z,87.20
2022-10-31T03:53:30.674Z,82.90
2022-10-31T03:56:12.575Z,87.50
2022-10-31T03:58:49.495Z,87.50
2022-10-31T04:01:19.147Z,88.00
2022-10-31T04:06:19.567Z,82.90
2022-10-31T04:08:51.931Z,87.30
2022-10-31T04:11:23.950Z,87.90
2022-10-31T04:14:12.077Z,89.10
2022-10-31T04:16:42.338Z,87.80
2022-10-31T04:19:09.198Z,87.80
2022-10-31T04:24:02.930Z,83.10
2022-10-31T04:26:30.920Z,86.20
2022-10-31T04:28:58.166Z,87.90
2022-10-31T04:31:27.666Z,89.50
2022-10-31T04:33:54.241Z,83.80
2022-10-31T04:36:20.962Z,88.90
2022-10-31T04:38:48.077Z,88.10
2022-10-31T04:41:34.411Z,88.80
2022-10-31T04:44:02.790Z,88.70
2022-10-31T04:46:29.443Z,89.00
2022-10-31T04:48:58.025Z,89.40
2022-10-31T04:51:24.801Z,84.40
2022-10-31T04:53:52.005Z,88.50
2022-10-31T04:56:27.814Z,88.60
2022-10-31T04:58:59.959Z,85.80
2022-10-31T05:01:29.599Z,88.70
2022-10-31T05:03:58.589Z,87.30
2022-10-31T05:06:25.289Z,88.00
2022-10-31T05:11:20.115Z,89.70
2022-10-31T05:13:47.013Z,84.80
2022-10-31T05:16:13.651Z,89.50
2022-10-31T05:19:15.844Z,90.30
2022-10-31T05:24:41.354Z,85.50
2022-10-31T05:27:09.899Z,89.00
2022-10-31T05:29:36.531Z,90.20
2022-10-31T05:32:03.800Z,88.70
2022-10-31T05:37:52.917Z,90.20
2022-10-31T05:40:20.237Z,84.30
2022-10-31T05:42:51.207Z,90.00
2022-10-31T05:45:19.044Z,88.90
2022-10-31T05:47:57.575Z,84.50
2022-10-31T05:53:12.237Z,87.40
2022-10-31T05:55:41.606Z,89.70
2022-10-31T05:58:28.549Z,89.90
2022-10-31T06:01:02.542Z,90.10
2022-10-31T06:03:29.427Z,89.70
2022-10-31T06:05:57.389Z,89.50
2022-10-31T06:08:37.484Z,89.70
2022-10-31T06:11:13.038Z,88.60
2022-10-31T06:13:58.482Z,89.90
2022-10-31T06:16:32.293Z,90.30
2022-10-31T06:19:09.048Z,90.00
2022-10-31T06:21:35.798Z,90.60
2022-10-31T06:24:02.434Z,90.00
2022-10-31T06:26:47.799Z,90.60
2022-10-31T06:29:15.798Z,90.60
2022-10-31T06:34:43.449Z,90.00
2022-10-31T06:37:12.449Z,85.20
2022-10-31T06:39:41.759Z,90.70
2022-10-31T06:44:37.901Z,86.70
2022-10-31T06:47:23.489Z,87.90
2022-10-31T06:54:53.741Z,85.20
2022-10-31T06:57:21.632Z,90.00
2022-10-31T06:59:48.286Z,90.00
2022-10-31T07:04:45.980Z,90.40
2022-10-31T07:07:14.570Z,89.30
2022-10-31T07:09:41.332Z,90.10
2022-10-31T07:12:10.517Z,90.10
2022-10-31T07:14:40.436Z,90.10
2022-10-31T07:17:07.259Z,87.40
2022-10-31T07:19:39.395Z,90.20
2022-10-31T07:27:19.833Z,89.90
2022-10-31T07:29:48.521Z,90.00
2022-10-31T07:32:16.431Z,89.90
2022-10-31T07:37:19.906Z,90.10
2022-10-31T07:39:46.681Z,85.50
2022-10-31T07:42:14.017Z,90.80
2022-10-31T07:50:18.409Z,85.60
2022-10-31T07:53:15.543Z,85.10
2022-10-31T07:55:50.165Z,90.50
2022-10-31T07:58:19.150Z,90.80
2022-10-31T08:00:48.122Z,90.80
2022-10-31T08:09:03.329Z,90.60
2022-10-31T08:11:31.428Z,90.20
2022-10-31T08:13:58.628Z,90.10
2022-10-31T08:18:57.441Z,89.20
2022-10-31T08:23:51.451Z,90.50
2022-10-31T08:28:50.725Z,89.80
2022-10-31T08:31:19.682Z,90.50
2022-10-31T08:33:46.319Z,88.10
2022-10-31T08:36:32.916Z,90.10
2022-10-31T08:39:14.762Z,90.50
2022-10-31T08:44:12.102Z,88.90
2022-10-31T08:46:38.982Z,85.20
2022-10-31T08:49:05.632Z,89.70
2022-10-31T08:51:32.295Z,90.00
2022-10-31T08:53:59.002Z,85.80
2022-10-31T08:57:03.885Z,84.40
2022-10-31T08:59:43.493Z,89.20
2022-10-31T09:02:25.117Z,90.10
2022-10-31T09:07:23.861Z,90.10
2022-10-31T09:09:50.625Z,89.30
2022-10-31T09:15:09.792Z,89.70
2022-10-31T09:18:09.811Z,89.70
2022-10-31T09:20:50.447Z,87.80
2022-10-31T09:23:22.796Z,89.70
2022-10-31T09:25:51.232Z,90.50
2022-10-31T09:28:33.450Z,88.50
2022-10-31T09:31:08.078Z,90.40
2022-10-31T09:36:32.402Z,88.30
2022-10-31T09:41:39.167Z,90.20
2022-10-31T09:44:33.666Z,88.50
2022-10-31T09:47:25.060Z,84.30
2022-10-31T09:50:27.071Z,89.00
2022-10-31T09:53:10.131Z,83.10
2022-10-31T09:55:42.315Z,88.40
2022-10-31T09:58:17.058Z,87.00
2022-10-31T10:00:45.914Z,84.40
2022-10-31T10:03:50.212Z,86.20
2022-10-31T10:06:47.417Z,87.00
2022-10-31T10:09:32.757Z,85.00
2022-10-31T10:12:56.363Z,85.30
2022-10-31T10:15:44.338Z,84.80
2022-10-31T10:18:30.566Z,84.70
2022-10-31T10:21:13.221Z,80.70
2022-10-31T10:24:00.359Z,84.80
2022-10-31T10:26:51.936Z,81.50
2022-10-31T10:29:37.045Z,81.30
2022-10-31T10:32:12.323Z,84.20
2022-10-31T10:34:47.250Z,83.50
2022-10-31T10:37:24.909Z,84.50
2022-10-31T10:40:06.029Z,79.60
2022-10-31T10:42:51.392Z,83.30
2022-10-31T10:45:39.146Z,79.60
2022-10-31T10:48:13.587Z,81.10
2022-10-31T10:50:49.258Z,82.30
2022-10-31T10:54:04.138Z,82.60
2022-10-31T10:56:55.030Z,83.10
2022-10-31T10:59:23.122Z,82.50
2022-10-31T11:01:52.485Z,81.40
2022-10-31T11:04:25.627Z,82.60
2022-10-31T11:07:01.318Z,79.00
2022-10-31T11:09:28.006Z,81.60
2022-10-31T11:11:56.431Z,82.60
2022-10-31T11:14:23.627Z,81.30
2022-10-31T11:17:07.423Z,78.30
2022-10-31T11:19:34.154Z,81.30
2022-10-31T11:22:07.900Z,78.50
2022-10-31T11:24:40.966Z,82.60
2022-10-31T11:27:14.137Z,77.90
2022-10-31T11:29:40.760Z,79.30
2022-10-31T11:32:25.521Z,78.60
2022-10-31T11:34:59.922Z,79.40
2022-10-31T11:37:30.165Z,78.10
2022-10-31T11:39:59.796Z,78.30
2022-10-31T11:42:35.437Z,75.00
2022-10-31T11:45:08.216Z,77.80
2022-10-31T11:47:34.965Z,77.30
2022-10-31T11:50:10.417Z,78.50
2022-10-31T11:52:40.611Z,77.50
2022-10-31T11:55:13.091Z,77.20
2022-10-31T11:57:47.931Z,74.50
2022-10-31T12:00:31.286Z,74.10
2022-10-31T12:03:16.593Z,75.90
2022-10-31T12:05:46.606Z,73.80
2022-10-31T12:08:14.556Z,74.10
2022-10-31T12:10:56.989Z,76.50
2022-10-31T12:13:40.557Z,76.90
2022-10-31T12:16:20.205Z,78.20
2022-10-31T12:19:05.729Z,76.70
2022-10-31T12:21:42.371Z,77.70
2022-10-31T12:24:41.610Z,77.50
2022-10-31T12:27:25.737Z,77.80
2022-10-31T12:30:26.540Z,78.20
2022-10-31T12:33:14.500Z,78.40
2022-10-31T12:35:59.341Z,78.30
2022-10-31T12:38:44.759Z,76.10
2022-10-31T12:41:34.712Z,79.10
2022-10-31T12:44:01.389Z,78.10
2022-10-31T12:46:43.244Z,75.40
2022-10-31T12:49:21.203Z,75.50
2022-10-31T12:52:03.959Z,75.10
2022-10-31T12:55:04.455Z,75.00
2022-10-31T12:57:39.852Z,77.20
2022-10-31T13:00:16.950Z,76.40
2022-10-31T13:02:58.469Z,77.50
2022-10-31T13:05:58.938Z,74.30
2022-10-31T13:08:41.663Z,74.20
2022-10-31T13:11:16.319Z,73.90
2022-10-31T13:13:53.834Z,75.80
2022-10-31T13:16:25.501Z,73.50
2022-10-31T13:19:01.180Z,78.00
2022-10-31T13:21:34.139Z,77.60
2022-10-31T13:24:05.141Z,74.10
2022-10-31T13:26:43.090Z,77.30
2022-10-31T13:29:31.802Z,76.50
2022-10-31T13:32:04.979Z,74.50
2022-10-31T13:34:48.677Z,76.70
2022-10-31T13:37:34.514Z,77.80
2022-10-31T13:40:13.551Z,74.30
2022-10-31T13:43:23.749Z,77.90
2022-10-31T13:45:52.922Z,77.50
2022-10-31T13:48:42.426Z,78.80
2022-10-31T13:51:11.743Z,78.70
2022-10-31T13:53:44.957Z,75.20
2022-10-31T13:56:30.272Z,77.30
2022-10-31T13:59:02.525Z,75.10
2022-10-31T14:01:30.538Z,77.00
2022-10-31T14:04:12.989Z,74.80
2022-10-31T14:07:04.491Z,78.00
2022-10-31T14:09:39.227Z,78.60
2022-10-31T14:12:09.939Z,74.60
2022-10-31T14:14:45.608Z,78.00
2022-10-31T14:17:39.090Z,74.90
2022-10-31T14:20:11.746Z,74.90
2022-10-31T14:22:42.890Z,77.50
2022-10-31T14:25:31.771Z,75.40
2022-10-31T14:27:59.943Z,75.30
2022-10-31T14:30:28.892Z,78.50
2022-10-31T14:33:10.030Z,78.00
2022-10-31T14:35:55.289Z,79.60
2022-10-31T14:38:51.880Z,77.80
2022-10-31T14:41:33.055Z,75.70
2022-10-31T14:44:27.441Z,75.80
2022-10-31T14:47:12.638Z,78.00
2022-10-31T14:50:00.579Z,75.90
2022-10-31T14:52:27.392Z,76.00
2022-10-31T14:54:57.694Z,78.50
2022-10-31T14:57:32.132Z,78.90
2022-10-31T15:00:16.019Z,79.70
2022-10-31T15:03:01.871Z,78.70
2022-10-31T15:05:29.902Z,78.70
2022-10-31T15:07:58.674Z,76.30
2022-10-31T15:10:31.049Z,78.80
2022-10-31T15:13:10.689Z,78.80
2022-10-31T15:15:38.026Z,79.20
2022-10-31T15:18:06.687Z,76.60
2022-10-31T15:20:44.033Z,79.20
2022-10-31T15:23:17.621Z,80.20
2022-10-31T15:25:45.016Z,79.30
2022-10-31T15:28:23.212Z,79.20
2022-10-31T15:31:01.594Z,77.00
2022-10-31T15:33:37.614Z,79.40
2022-10-31T15:36:05.726Z,80.60
2022-10-31T15:38:33.691Z,77.30
2022-10-31T15:41:05.313Z,77.60
2022-10-31T15:43:39.767Z,80.10
2022-10-31T15:46:10.929Z,80.40
2022-10-31T15:48:39.255Z,79.80
2022-10-31T15:51:06.454Z,77.40
2022-10-31T15:53:33.099Z,77.50
2022-10-31T15:56:03.200Z,80.90
2022-10-31T15:58:31.225Z,80.40
2022-10-31T16:01:22.925Z,80.60
2022-10-31T16:04:13.803Z,77.60
2022-10-31T16:06:40.498Z,81.60
2022-10-31T16:09:23.350Z,81.40
2022-10-31T16:11:51.759Z,80.70
2022-10-31T16:14:25.697Z,81.40
2022-10-31T16:16:55.624Z,81.20
2022-10-31T16:19:34.681Z,80.30
2022-10-31T16:22:20.842Z,80.50
2022-10-31T16:24:58.439Z,81.40
2022-10-31T16:27:29.638Z,81.20
2022-10-31T16:29:58.247Z,80.70
2022-10-31T16:32:53.002Z,80.60
2022-10-31T16:35:26.576Z,80.80
2022-10-31T16:37:54.075Z,80.80
2022-10-31T16:40:21.639Z,81.80
2022-10-31T16:42:49.838Z,80.90
2022-10-31T16:45:22.097Z,81.60
2022-10-31T16:50:24.239Z,78.70
2022-10-31T16:53:12.855Z,83.00
2022-10-31T16:55:56.377Z,82.90
2022-10-31T16:58:34.565Z,81.80
2022-10-31T17:01:02.681Z,82.00
2022-10-31T17:03:29.352Z,82.30
2022-10-31T17:05:56.378Z,82.80
2022-10-31T17:08:24.729Z,82.40
2022-10-31T17:10:56.204Z,82.70
2022-10-31T17:13:25.502Z,79.50
2022-10-31T17:15:55.250Z,84.10
2022-10-31T17:18:27.119Z,80.30
2022-10-31T17:21:04.227Z,83.00
2022-10-31T17:23:33.165Z,83.00
2022-10-31T17:26:00.028Z,83.90
2022-10-31T17:28:26.998Z,80.50
2022-10-31T17:30:55.557Z,80.30
2022-10-31T17:33:22.315Z,83.00
2022-10-31T17:35:49.000Z,80.50
2022-10-31T17:40:42.980Z,83.60
2022-10-31T17:43:11.020Z,83.20
2022-10-31T17:45:40.281Z,83.40
2022-10-31T17:48:07.583Z,83.50
2022-10-31T17:50:34.281Z,83.90
2022-10-31T17:53:01.804Z,84.00
2022-10-31T17:58:03.701Z,84.40
2022-10-31T18:02:57.674Z,85.00
2022-10-31T18:05:24.393Z,85.50
2022-10-31T18:07:51.190Z,84.80
2022-10-31T18:10:18.139Z,84.80
2022-10-31T18:12:44.815Z,85.20
2022-10-31T18:17:42.002Z,85.40
2022-10-31T18:20:10.133Z,85.90
2022-10-31T18:22:37.152Z,85.40
2022-10-31T18:25:04.687Z,86.90
2022-10-31T18:29:58.519Z,86.00
2022-10-31T18:32:25.235Z,85.90
2022-10-31T18:34:51.888Z,86.80
2022-10-31T18:37:18.523Z,86.20
2022-10-31T18:42:12.662Z,87.50
2022-10-31T18:44:39.297Z,87.40
2022-10-31T18:47:05.939Z,86.10
2022-10-31T18:52:00.579Z,86.30
2022-10-31T18:54:27.279Z,87.00
2022-10-31T18:59:22.529Z,85.10
2022-10-31T19:01:49.269Z,88.00
2022-10-31T19:04:15.931Z,83.70
2022-10-31T19:06:42.585Z,86.90
2022-10-31T19:11:37.785Z,86.80
2022-10-31T19:14:05.498Z,87.80
2022-10-31T19:16:32.190Z,88.00
2022-10-31T19:18:59.942Z,87.10
2022-10-31T19:23:56.212Z,83.60
2022-10-31T19:26:23.414Z,88.70
2022-10-31T19:28:50.048Z,87.20
2022-10-31T19:31:18.831Z,87.30
2022-10-31T19:33:46.236Z,87.20
2022-10-31T19:36:15.515Z,87.20
2022-10-31T19:38:44.343Z,87.30
2022-10-31T19:41:14.459Z,87.50
2022-10-31T19:43:41.502Z,87.30
2022-10-31T19:46:17.431Z,86.80
2022-10-31T19:48:54.958Z,87.70
2022-10-31T19:51:22.179Z,87.30
2022-10-31T19:53:52.356Z,87.50
2022-10-31T19:56:25.187Z,87.60
2022-10-31T19:58:51.903Z,86.80
2022-10-31T20:01:21.872Z,87.00
2022-10-31T20:03:49.458Z,82.60
2022-10-31T20:06:23.302Z,85.60
2022-10-31T20:08:50.194Z,85.00
2022-10-31T20:11:16.885Z,83.10
2022-10-31T20:13:43.665Z,86.80
2022-10-31T20:16:12.671Z,86.10
2022-10-31T20:18:40.382Z,86.30
2022-10-31T20:21:09.728Z,85.80
2022-10-31T20:23:37.308Z,86.20
2022-10-31T20:26:04.853Z,86.00
2022-10-31T20:28:32.910Z,87.90
2022-10-31T20:31:01.086Z,85.80
2022-10-31T20:38:22.157Z,85.70
2022-10-31T20:45:43.538Z,85.10
2022-10-31T20:50:39.237Z,85.00
2022-10-31T20:58:02.452Z,85.10
2022-10-31T21:00:29.074Z,84.80
2022-10-31T21:02:55.748Z,84.70
2022-10-31T21:10:17.568Z,85.50
2022-10-31T21:12:44.969Z,80.50
2022-10-31T21:15:13.793Z,80.50
2022-10-31T21:17:41.417Z,85.50
2022-10-31T21:20:09.989Z,84.10
2022-10-31T21:22:36.984Z,84.20
2022-10-31T21:25:04.363Z,82.00
2022-10-31T21:27:31.330Z,84.00
2022-10-31T21:29:58.271Z,84.90
2022-10-31T21:32:24.957Z,84.00
2022-10-31T21:37:18.803Z,84.60
2022-10-31T21:42:21.342Z,83.90
2022-10-31T21:44:51.573Z,80.90
2022-10-31T21:49:45.410Z,82.90
2022-10-31T21:52:12.319Z,84.20
2022-10-31T21:54:38.933Z,80.40
2022-10-31T21:59:32.758Z,84.40
2022-10-31T22:02:00.781Z,84.80
2022-10-31T22:04:28.427Z,84.30
2022-10-31T22:06:55.187Z,83.90
2022-10-31T22:09:23.194Z,84.80
2022-10-31T22:11:50.249Z,84.20
2022-10-31T22:14:16.941Z,84.50
2022-10-31T22:16:43.958Z,83.50
2022-10-31T22:19:12.742Z,83.00
2022-10-31T22:21:47.382Z,83.70
2022-10-31T22:24:14.487Z,83.80
2022-10-31T22:29:12.676Z,83.80
2022-10-31T22:31:42.842Z,81.90
2022-10-31T22:34:10.412Z,80.80
2022-10-31T22:36:37.931Z,82.90
2022-10-31T22:39:05.647Z,82.80
2022-10-31T22:41:34.361Z,83.20
2022-10-31T22:44:01.660Z,82.40
2022-10-31T22:46:32.357Z,82.00
2022-10-31T22:49:01.652Z,81.00
2022-10-31T22:51:32.639Z,80.60
2022-10-31T22:54:00.037Z,80.20
2022-10-31T22:56:29.376Z,81.40
2022-10-31T22:58:56.122Z,79.90
2022-10-31T23:01:24.019Z,76.50
2022-10-31T23:03:51.041Z,81.10
2022-10-31T23:06:20.610Z,79.40
2022-10-31T23:08:47.894Z,80.30
2022-10-31T23:11:40.961Z,75.90
2022-10-31T23:14:13.651Z,75.50
2022-10-31T23:16:45.364Z,79.10
2022-10-31T23:19:18.319Z,75.70
2022-10-31T23:21:57.651Z,79.60
2022-10-31T23:24:25.914Z,76.40
2022-10-31T23:27:09.048Z,80.00
2022-10-31T23:29:52.976Z,80.10
2022-10-31T23:34:48.708Z,80.70
2022-10-31T23:37:16.715Z,80.70
2022-10-31T23:39:43.372Z,82.40
2022-10-31T23:42:10.525Z,81.20
2022-10-31T23:44:37.158Z,81.00
2022-10-31T23:47:04.702Z,81.30
2022-10-31T23:49:31.553Z,82.60
2022-10-31T23:54:26.559Z,81.60
2022-10-31T23:56:53.985Z,82.00
2022-10-31T23:59:22.742Z,82.40
